sensor_id;sensor_type;location;lat;lon;timestamp;P1;durP1;ratioP1;P2;durP2;ratioP2
75320;SDS011;63920;52.130;5.584;2022-10-17T00:01:01;5.30;;;4.80;;
75320;SDS011;63920;52.130;5.584;2022-10-17T00:03:27;6.75;;;5.60;;
75320;SDS011;63920;52.130;5.584;2022-10-17T00:05:52;10.77;;;6.00;;
75320;SDS011;63920;52.130;5.584;2022-10-17T00:08:18;6.95;;;5.88;;
75320;SDS011;63920;52.130;5.584;2022-10-17T00:10:44;7.78;;;6.13;;
75320;SDS011;63920;52.130;5.584;2022-10-17T00:13:18;7.93;;;6.13;;
75320;SDS011;63920;52.130;5.584;2022-10-17T00:15:44;9.32;;;6.85;;
75320;SDS011;63920;52.130;5.584;2022-10-17T00:18:10;9.63;;;6.68;;
75320;SDS011;63920;52.130;5.584;2022-10-17T00:20:35;10.07;;;6.95;;
75320;SDS011;63920;52.130;5.584;2022-10-17T00:23:01;8.15;;;6.97;;
75320;SDS011;63920;52.130;5.584;2022-10-17T00:25:26;10.05;;;8.05;;
75320;SDS011;63920;52.130;5.584;2022-10-17T00:27:52;8.43;;;7.55;;
75320;SDS011;63920;52.130;5.584;2022-10-17T00:30:18;8.55;;;7.60;;
75320;SDS011;63920;52.130;5.584;2022-10-17T00:32:43;9.93;;;8.05;;
75320;SDS011;63920;52.130;5.584;2022-10-17T00:35:09;9.23;;;7.53;;
75320;SDS011;63920;52.130;5.584;2022-10-17T00:37:35;11.30;;;8.00;;
75320;SDS011;63920;52.130;5.584;2022-10-17T00:40:01;11.63;;;7.18;;
75320;SDS011;63920;52.130;5.584;2022-10-17T00:42:27;8.90;;;7.63;;
75320;SDS011;63920;52.130;5.584;2022-10-17T00:44:56;8.25;;;7.45;;
75320;SDS011;63920;52.130;5.584;2022-10-17T00:47:28;7.93;;;7.18;;
75320;SDS011;63920;52.130;5.584;2022-10-17T00:49:54;8.55;;;7.65;;
75320;SDS011;63920;52.130;5.584;2022-10-17T00:52:21;13.00;;;7.65;;
75320;SDS011;63920;52.130;5.584;2022-10-17T00:54:54;10.30;;;7.53;;
75320;SDS011;63920;52.130;5.584;2022-10-17T00:57:23;7.85;;;7.10;;
75320;SDS011;63920;52.130;5.584;2022-10-17T00:59:50;10.10;;;8.32;;
75320;SDS011;63920;52.130;5.584;2022-10-17T01:02:19;8.43;;;7.15;;
75320;SDS011;63920;52.130;5.584;2022-10-17T01:04:46;11.57;;;7.85;;
75320;SDS011;63920;52.130;5.584;2022-10-17T01:07:15;9.57;;;8.35;;
75320;SDS011;63920;52.130;5.584;2022-10-17T01:09:40;11.20;;;8.27;;
75320;SDS011;63920;52.130;5.584;2022-10-17T01:26:15;10.18;;;8.32;;
75320;SDS011;63920;52.130;5.584;2022-10-17T01:31:44;9.85;;;8.88;;
75320;SDS011;63920;52.130;5.584;2022-10-17T01:34:28;9.45;;;8.38;;
75320;SDS011;63920;52.130;5.584;2022-10-17T01:42:22;11.20;;;9.20;;
75320;SDS011;63920;52.130;5.584;2022-10-17T01:44:55;11.18;;;9.85;;
75320;SDS011;63920;52.130;5.584;2022-10-17T01:47:23;13.55;;;9.35;;
75320;SDS011;63920;52.130;5.584;2022-10-17T01:49:53;11.77;;;10.57;;
75320;SDS011;63920;52.130;5.584;2022-10-17T01:52:25;15.15;;;9.88;;
75320;SDS011;63920;52.130;5.584;2022-10-17T01:54:55;12.35;;;10.65;;
75320;SDS011;63920;52.130;5.584;2022-10-17T01:57:28;10.98;;;9.80;;
75320;SDS011;63920;52.130;5.584;2022-10-17T01:59:58;11.15;;;10.02;;
75320;SDS011;63920;52.130;5.584;2022-10-17T02:02:24;12.15;;;9.95;;
75320;SDS011;63920;52.130;5.584;2022-10-17T02:04:50;12.38;;;10.25;;
75320;SDS011;63920;52.130;5.584;2022-10-17T02:07:18;17.60;;;9.88;;
75320;SDS011;63920;52.130;5.584;2022-10-17T02:09:44;11.73;;;10.52;;
75320;SDS011;63920;52.130;5.584;2022-10-17T02:12:15;12.63;;;10.38;;
75320;SDS011;63920;52.130;5.584;2022-10-17T02:18:08;11.98;;;10.75;;
75320;SDS011;63920;52.130;5.584;2022-10-17T02:20:48;12.63;;;11.27;;
75320;SDS011;63920;52.130;5.584;2022-10-17T02:23:26;11.50;;;10.43;;
75320;SDS011;63920;52.130;5.584;2022-10-17T02:28:39;12.68;;;10.48;;
75320;SDS011;63920;52.130;5.584;2022-10-17T02:31:14;11.77;;;10.45;;
75320;SDS011;63920;52.130;5.584;2022-10-17T02:33:46;14.57;;;11.20;;
75320;SDS011;63920;52.130;5.584;2022-10-17T02:36:21;12.55;;;10.95;;
75320;SDS011;63920;52.130;5.584;2022-10-17T02:38:50;13.43;;;11.20;;
75320;SDS011;63920;52.130;5.584;2022-10-17T02:41:18;12.48;;;11.18;;
75320;SDS011;63920;52.130;5.584;2022-10-17T02:43:46;15.95;;;11.57;;
75320;SDS011;63920;52.130;5.584;2022-10-17T02:46:14;17.38;;;12.10;;
75320;SDS011;63920;52.130;5.584;2022-10-17T02:48:58;12.57;;;11.35;;
75320;SDS011;63920;52.130;5.584;2022-10-17T02:51:46;13.68;;;12.25;;
75320;SDS011;63920;52.130;5.584;2022-10-17T02:54:30;17.02;;;12.10;;
75320;SDS011;63920;52.130;5.584;2022-10-17T02:57:15;12.60;;;11.40;;
75320;SDS011;63920;52.130;5.584;2022-10-17T02:59:43;15.75;;;11.82;;
75320;SDS011;63920;52.130;5.584;2022-10-17T03:02:09;12.40;;;11.18;;
75320;SDS011;63920;52.130;5.584;2022-10-17T03:04:35;13.05;;;11.85;;
75320;SDS011;63920;52.130;5.584;2022-10-17T03:07:02;14.25;;;12.68;;
75320;SDS011;63920;52.130;5.584;2022-10-17T03:09:27;17.20;;;12.55;;
75320;SDS011;63920;52.130;5.584;2022-10-17T03:11:53;13.60;;;11.73;;
75320;SDS011;63920;52.130;5.584;2022-10-17T03:14:19;13.38;;;11.10;;
75320;SDS011;63920;52.130;5.584;2022-10-17T03:16:44;15.45;;;11.50;;
75320;SDS011;63920;52.130;5.584;2022-10-17T03:19:10;12.50;;;11.30;;
75320;SDS011;63920;52.130;5.584;2022-10-17T03:21:35;12.45;;;11.25;;
75320;SDS011;63920;52.130;5.584;2022-10-17T03:24:02;14.00;;;11.32;;
75320;SDS011;63920;52.130;5.584;2022-10-17T03:26:28;22.85;;;11.75;;
75320;SDS011;63920;52.130;5.584;2022-10-17T03:28:54;12.15;;;10.80;;
75320;SDS011;63920;52.130;5.584;2022-10-17T03:31:20;12.25;;;10.98;;
75320;SDS011;63920;52.130;5.584;2022-10-17T03:33:46;13.80;;;11.00;;
75320;SDS011;63920;52.130;5.584;2022-10-17T03:36:13;13.35;;;12.00;;
75320;SDS011;63920;52.130;5.584;2022-10-17T03:38:40;14.23;;;10.30;;
75320;SDS011;63920;52.130;5.584;2022-10-17T03:41:06;12.23;;;10.93;;
75320;SDS011;63920;52.130;5.584;2022-10-17T03:43:32;15.02;;;11.35;;
75320;SDS011;63920;52.130;5.584;2022-10-17T03:45:58;14.55;;;12.32;;
75320;SDS011;63920;52.130;5.584;2022-10-17T03:48:24;12.32;;;10.93;;
75320;SDS011;63920;52.130;5.584;2022-10-17T03:50:58;14.40;;;11.90;;
75320;SDS011;63920;52.130;5.584;2022-10-17T03:53:25;14.85;;;11.07;;
75320;SDS011;63920;52.130;5.584;2022-10-17T03:55:51;12.90;;;10.63;;
75320;SDS011;63920;52.130;5.584;2022-10-17T03:58:16;13.25;;;11.85;;
75320;SDS011;63920;52.130;5.584;2022-10-17T04:00:42;12.63;;;11.32;;
75320;SDS011;63920;52.130;5.584;2022-10-17T04:03:07;11.93;;;10.68;;
75320;SDS011;63920;52.130;5.584;2022-10-17T04:05:33;11.35;;;10.25;;
75320;SDS011;63920;52.130;5.584;2022-10-17T04:07:58;13.15;;;11.75;;
75320;SDS011;63920;52.130;5.584;2022-10-17T04:10:24;15.18;;;11.10;;
75320;SDS011;63920;52.130;5.584;2022-10-17T04:12:49;13.07;;;10.27;;
75320;SDS011;63920;52.130;5.584;2022-10-17T04:15:15;15.07;;;10.45;;
75320;SDS011;63920;52.130;5.584;2022-10-17T04:17:41;13.77;;;11.50;;
75320;SDS011;63920;52.130;5.584;2022-10-17T04:20:06;12.05;;;10.93;;
75320;SDS011;63920;52.130;5.584;2022-10-17T04:22:32;13.32;;;11.52;;
75320;SDS011;63920;52.130;5.584;2022-10-17T04:24:58;11.90;;;10.15;;
75320;SDS011;63920;52.130;5.584;2022-10-17T04:27:23;14.43;;;10.95;;
75320;SDS011;63920;52.130;5.584;2022-10-17T04:29:49;17.23;;;11.05;;
75320;SDS011;63920;52.130;5.584;2022-10-17T04:32:17;20.48;;;11.13;;
75320;SDS011;63920;52.130;5.584;2022-10-17T04:34:43;14.70;;;11.38;;
75320;SDS011;63920;52.130;5.584;2022-10-17T04:37:12;15.55;;;10.82;;
75320;SDS011;63920;52.130;5.584;2022-10-17T04:39:37;13.55;;;11.25;;
75320;SDS011;63920;52.130;5.584;2022-10-17T04:42:03;12.15;;;10.95;;
75320;SDS011;63920;52.130;5.584;2022-10-17T04:44:28;12.57;;;10.88;;
75320;SDS011;63920;52.130;5.584;2022-10-17T04:46:55;16.25;;;11.45;;
75320;SDS011;63920;52.130;5.584;2022-10-17T04:49:20;15.63;;;12.88;;
75320;SDS011;63920;52.130;5.584;2022-10-17T04:51:45;16.27;;;12.25;;
75320;SDS011;63920;52.130;5.584;2022-10-17T04:54:11;13.77;;;11.45;;
75320;SDS011;63920;52.130;5.584;2022-10-17T04:56:37;15.18;;;10.85;;
75320;SDS011;63920;52.130;5.584;2022-10-17T04:59:02;14.15;;;11.05;;
75320;SDS011;63920;52.130;5.584;2022-10-17T05:01:28;13.32;;;10.90;;
75320;SDS011;63920;52.130;5.584;2022-10-17T05:03:53;12.10;;;10.85;;
75320;SDS011;63920;52.130;5.584;2022-10-17T05:06:21;17.23;;;10.95;;
75320;SDS011;63920;52.130;5.584;2022-10-17T05:08:48;14.32;;;11.15;;
75320;SDS011;63920;52.130;5.584;2022-10-17T05:11:18;14.05;;;11.20;;
75320;SDS011;63920;52.130;5.584;2022-10-17T05:13:52;15.98;;;11.57;;
75320;SDS011;63920;52.130;5.584;2022-10-17T05:16:23;13.75;;;10.85;;
75320;SDS011;63920;52.130;5.584;2022-10-17T05:18:53;12.98;;;11.40;;
75320;SDS011;63920;52.130;5.584;2022-10-17T05:21:20;14.50;;;11.30;;
75320;SDS011;63920;52.130;5.584;2022-10-17T05:23:47;16.38;;;11.15;;
75320;SDS011;63920;52.130;5.584;2022-10-17T05:26:13;13.15;;;10.77;;
75320;SDS011;63920;52.130;5.584;2022-10-17T05:28:39;15.65;;;11.07;;
75320;SDS011;63920;52.130;5.584;2022-10-17T05:31:05;15.05;;;10.45;;
75320;SDS011;63920;52.130;5.584;2022-10-17T05:33:31;15.55;;;11.02;;
75320;SDS011;63920;52.130;5.584;2022-10-17T05:35:57;14.73;;;10.90;;
75320;SDS011;63920;52.130;5.584;2022-10-17T05:38:23;14.98;;;11.10;;
75320;SDS011;63920;52.130;5.584;2022-10-17T05:40:49;12.20;;;10.95;;
75320;SDS011;63920;52.130;5.584;2022-10-17T05:43:14;13.50;;;10.88;;
75320;SDS011;63920;52.130;5.584;2022-10-17T05:45:40;12.32;;;11.13;;
75320;SDS011;63920;52.130;5.584;2022-10-17T05:48:05;14.55;;;11.48;;
75320;SDS011;63920;52.130;5.584;2022-10-17T05:50:33;17.73;;;10.75;;
75320;SDS011;63920;52.130;5.584;2022-10-17T05:52:59;13.23;;;11.73;;
75320;SDS011;63920;52.130;5.584;2022-10-17T05:55:25;13.45;;;11.48;;
75320;SDS011;63920;52.130;5.584;2022-10-17T05:57:51;15.68;;;11.27;;
75320;SDS011;63920;52.130;5.584;2022-10-17T06:00:18;18.38;;;11.10;;
75320;SDS011;63920;52.130;5.584;2022-10-17T06:02:44;11.95;;;10.73;;
75320;SDS011;63920;52.130;5.584;2022-10-17T06:05:11;16.75;;;11.25;;
75320;SDS011;63920;52.130;5.584;2022-10-17T06:07:37;14.40;;;11.00;;
75320;SDS011;63920;52.130;5.584;2022-10-17T06:10:03;11.57;;;10.35;;
75320;SDS011;63920;52.130;5.584;2022-10-17T06:12:29;18.90;;;11.40;;
75320;SDS011;63920;52.130;5.584;2022-10-17T06:14:54;12.20;;;10.73;;
75320;SDS011;63920;52.130;5.584;2022-10-17T06:17:20;13.18;;;10.93;;
75320;SDS011;63920;52.130;5.584;2022-10-17T06:19:45;19.35;;;10.73;;
75320;SDS011;63920;52.130;5.584;2022-10-17T06:22:11;12.85;;;10.82;;
75320;SDS011;63920;52.130;5.584;2022-10-17T06:24:37;12.23;;;10.93;;
75320;SDS011;63920;52.130;5.584;2022-10-17T06:27:02;14.60;;;10.68;;
75320;SDS011;63920;52.130;5.584;2022-10-17T06:29:28;13.02;;;11.20;;
75320;SDS011;63920;52.130;5.584;2022-10-17T06:31:53;13.43;;;11.75;;
75320;SDS011;63920;52.130;5.584;2022-10-17T06:34:19;15.90;;;11.02;;
75320;SDS011;63920;52.130;5.584;2022-10-17T06:36:45;12.90;;;10.63;;
75320;SDS011;63920;52.130;5.584;2022-10-17T06:39:11;14.48;;;11.32;;
75320;SDS011;63920;52.130;5.584;2022-10-17T06:41:37;15.05;;;11.55;;
75320;SDS011;63920;52.130;5.584;2022-10-17T06:44:04;15.43;;;10.68;;
75320;SDS011;63920;52.130;5.584;2022-10-17T06:46:35;14.88;;;11.30;;
75320;SDS011;63920;52.130;5.584;2022-10-17T06:49:01;13.40;;;11.98;;
75320;SDS011;63920;52.130;5.584;2022-10-17T06:51:28;15.13;;;11.32;;
75320;SDS011;63920;52.130;5.584;2022-10-17T06:53:55;12.27;;;10.93;;
75320;SDS011;63920;52.130;5.584;2022-10-17T06:56:22;15.57;;;11.57;;
75320;SDS011;63920;52.130;5.584;2022-10-17T06:58:48;15.23;;;11.52;;
75320;SDS011;63920;52.130;5.584;2022-10-17T07:01:15;13.00;;;11.70;;
75320;SDS011;63920;52.130;5.584;2022-10-17T07:03:41;16.55;;;12.07;;
75320;SDS011;63920;52.130;5.584;2022-10-17T07:06:10;15.27;;;11.82;;
75320;SDS011;63920;52.130;5.584;2022-10-17T07:08:36;19.00;;;12.23;;
75320;SDS011;63920;52.130;5.584;2022-10-17T07:11:12;13.15;;;11.50;;
75320;SDS011;63920;52.130;5.584;2022-10-17T07:13:42;15.57;;;11.27;;
75320;SDS011;63920;52.130;5.584;2022-10-17T07:16:08;17.98;;;11.02;;
75320;SDS011;63920;52.130;5.584;2022-10-17T07:18:34;13.45;;;10.85;;
75320;SDS011;63920;52.130;5.584;2022-10-17T07:21:00;13.40;;;11.15;;
75320;SDS011;63920;52.130;5.584;2022-10-17T07:23:26;14.63;;;10.70;;
75320;SDS011;63920;52.130;5.584;2022-10-17T07:25:51;19.70;;;11.77;;
75320;SDS011;63920;52.130;5.584;2022-10-17T07:28:18;17.33;;;11.30;;
75320;SDS011;63920;52.130;5.584;2022-10-17T07:30:43;15.82;;;11.88;;
75320;SDS011;63920;52.130;5.584;2022-10-17T07:33:09;15.85;;;11.10;;
75320;SDS011;63920;52.130;5.584;2022-10-17T07:35:36;12.90;;;10.43;;
75320;SDS011;63920;52.130;5.584;2022-10-17T07:38:04;16.63;;;11.80;;
75320;SDS011;63920;52.130;5.584;2022-10-17T07:40:30;14.52;;;11.55;;
75320;SDS011;63920;52.130;5.584;2022-10-17T07:42:56;15.27;;;11.20;;
75320;SDS011;63920;52.130;5.584;2022-10-17T07:45:22;12.07;;;10.90;;
75320;SDS011;63920;52.130;5.584;2022-10-17T07:47:48;13.18;;;11.77;;
75320;SDS011;63920;52.130;5.584;2022-10-17T07:50:14;11.68;;;10.40;;
75320;SDS011;63920;52.130;5.584;2022-10-17T07:52:39;12.25;;;11.13;;
75320;SDS011;63920;52.130;5.584;2022-10-17T07:55:07;16.40;;;11.38;;
75320;SDS011;63920;52.130;5.584;2022-10-17T07:57:33;14.98;;;12.10;;
75320;SDS011;63920;52.130;5.584;2022-10-17T07:59:58;16.52;;;11.15;;
75320;SDS011;63920;52.130;5.584;2022-10-17T08:02:25;16.73;;;11.45;;
75320;SDS011;63920;52.130;5.584;2022-10-17T08:04:52;12.90;;;11.50;;
75320;SDS011;63920;52.130;5.584;2022-10-17T08:07:18;12.32;;;11.07;;
75320;SDS011;63920;52.130;5.584;2022-10-17T08:09:44;13.73;;;11.32;;
75320;SDS011;63920;52.130;5.584;2022-10-17T08:12:10;18.13;;;11.77;;
75320;SDS011;63920;52.130;5.584;2022-10-17T08:14:38;14.50;;;11.93;;
75320;SDS011;63920;52.130;5.584;2022-10-17T08:17:04;13.30;;;11.68;;
75320;SDS011;63920;52.130;5.584;2022-10-17T08:19:29;18.15;;;12.15;;
75320;SDS011;63920;52.130;5.584;2022-10-17T08:21:55;15.35;;;12.65;;
75320;SDS011;63920;52.130;5.584;2022-10-17T08:24:22;16.30;;;12.05;;
75320;SDS011;63920;52.130;5.584;2022-10-17T08:26:48;13.23;;;11.82;;
75320;SDS011;63920;52.130;5.584;2022-10-17T08:29:13;14.13;;;12.50;;
75320;SDS011;63920;52.130;5.584;2022-10-17T08:31:40;21.55;;;13.40;;
75320;SDS011;63920;52.130;5.584;2022-10-17T08:34:06;16.02;;;13.05;;
75320;SDS011;63920;52.130;5.584;2022-10-17T08:36:31;20.58;;;13.63;;
75320;SDS011;63920;52.130;5.584;2022-10-17T08:38:57;16.40;;;13.63;;
75320;SDS011;63920;52.130;5.584;2022-10-17T08:46:57;19.52;;;12.98;;
75320;SDS011;63920;52.130;5.584;2022-10-17T08:49:33;14.73;;;12.77;;
75320;SDS011;63920;52.130;5.584;2022-10-17T08:52:04;17.08;;;12.77;;
75320;SDS011;63920;52.130;5.584;2022-10-17T08:54:43;17.05;;;12.82;;
75320;SDS011;63920;52.130;5.584;2022-10-17T08:57:14;14.05;;;11.80;;
75320;SDS011;63920;52.130;5.584;2022-10-17T08:59:44;16.95;;;12.88;;
75320;SDS011;63920;52.130;5.584;2022-10-17T09:13:29;14.00;;;12.45;;
75320;SDS011;63920;52.130;5.584;2022-10-17T09:18:46;18.77;;;14.90;;
75320;SDS011;63920;52.130;5.584;2022-10-17T09:24:02;15.63;;;13.20;;
75320;SDS011;63920;52.130;5.584;2022-10-17T09:26:34;14.60;;;13.23;;
75320;SDS011;63920;52.130;5.584;2022-10-17T09:28:59;17.60;;;12.77;;
75320;SDS011;63920;52.130;5.584;2022-10-17T09:31:29;16.48;;;11.82;;
75320;SDS011;63920;52.130;5.584;2022-10-17T09:33:59;14.30;;;12.80;;
75320;SDS011;63920;52.130;5.584;2022-10-17T09:36:33;18.88;;;12.88;;
75320;SDS011;63920;52.130;5.584;2022-10-17T09:39:02;13.35;;;11.88;;
75320;SDS011;63920;52.130;5.584;2022-10-17T09:41:49;13.90;;;11.85;;
75320;SDS011;63920;52.130;5.584;2022-10-17T09:49:36;16.77;;;13.18;;
75320;SDS011;63920;52.130;5.584;2022-10-17T09:52:05;16.67;;;11.88;;
75320;SDS011;63920;52.130;5.584;2022-10-17T09:54:41;12.70;;;11.48;;
75320;SDS011;63920;52.130;5.584;2022-10-17T09:57:19;18.60;;;12.27;;
75320;SDS011;63920;52.130;5.584;2022-10-17T09:59:47;16.52;;;12.65;;
75320;SDS011;63920;52.130;5.584;2022-10-17T10:02:20;16.65;;;12.07;;
75320;SDS011;63920;52.130;5.584;2022-10-17T10:04:50;15.80;;;12.20;;
75320;SDS011;63920;52.130;5.584;2022-10-17T10:07:28;12.85;;;11.45;;
75320;SDS011;63920;52.130;5.584;2022-10-17T10:09:55;14.07;;;11.90;;
75320;SDS011;63920;52.130;5.584;2022-10-17T10:12:24;13.68;;;11.27;;
75320;SDS011;63920;52.130;5.584;2022-10-17T10:14:52;14.40;;;11.60;;
75320;SDS011;63920;52.130;5.584;2022-10-17T10:17:38;15.43;;;12.15;;
75320;SDS011;63920;52.130;5.584;2022-10-17T10:23:30;14.13;;;12.80;;
75320;SDS011;63920;52.130;5.584;2022-10-17T10:25:51;16.30;;;12.80;;
75320;SDS011;63920;52.130;5.584;2022-10-17T10:28:20;13.50;;;12.02;;
75320;SDS011;63920;52.130;5.584;2022-10-17T10:30:50;15.77;;;13.02;;
75320;SDS011;63920;52.130;5.584;2022-10-17T10:33:18;19.00;;;13.13;;
75320;SDS011;63920;52.130;5.584;2022-10-17T10:36:03;13.30;;;11.85;;
75320;SDS011;63920;52.130;5.584;2022-10-17T10:38:31;22.15;;;12.98;;
75320;SDS011;63920;52.130;5.584;2022-10-17T10:41:02;14.60;;;12.60;;
75320;SDS011;63920;52.130;5.584;2022-10-17T10:43:32;14.77;;;13.25;;
75320;SDS011;63920;52.130;5.584;2022-10-17T10:46:04;15.27;;;13.27;;
75320;SDS011;63920;52.130;5.584;2022-10-17T10:48:48;14.55;;;12.90;;
75320;SDS011;63920;52.130;5.584;2022-10-17T10:51:16;13.75;;;11.38;;
75320;SDS011;63920;52.130;5.584;2022-10-17T10:56:45;12.88;;;11.57;;
75320;SDS011;63920;52.130;5.584;2022-10-17T10:59:28;12.25;;;10.00;;
75320;SDS011;63920;52.130;5.584;2022-10-17T11:02:01;12.10;;;10.90;;
75320;SDS011;63920;52.130;5.584;2022-10-17T11:04:45;13.00;;;11.70;;
75320;SDS011;63920;52.130;5.584;2022-10-17T11:12:53;12.77;;;10.02;;
75320;SDS011;63920;52.130;5.584;2022-10-17T11:22:15;15.48;;;10.48;;
75320;SDS011;63920;52.130;5.584;2022-10-17T11:24:57;11.75;;;10.55;;
75320;SDS011;63920;52.130;5.584;2022-10-17T11:27:44;12.23;;;11.05;;
75320;SDS011;63920;52.130;5.584;2022-10-17T11:30:13;13.05;;;10.60;;
75320;SDS011;63920;52.130;5.584;2022-10-17T11:32:47;13.50;;;10.07;;
75320;SDS011;63920;52.130;5.584;2022-10-17T11:35:27;10.93;;;9.82;;
75320;SDS011;63920;52.130;5.584;2022-10-17T11:40:28;11.70;;;10.27;;
75320;SDS011;63920;52.130;5.584;2022-10-17T11:42:58;14.90;;;9.90;;
75320;SDS011;63920;52.130;5.584;2022-10-17T11:45:33;14.00;;;10.57;;
75320;SDS011;63920;52.130;5.584;2022-10-17T11:48:10;12.50;;;10.07;;
75320;SDS011;63920;52.130;5.584;2022-10-17T11:50:42;13.15;;;10.40;;
75320;SDS011;63920;52.130;5.584;2022-10-17T11:53:15;11.27;;;9.32;;
75320;SDS011;63920;52.130;5.584;2022-10-17T11:55:43;13.90;;;9.85;;
75320;SDS011;63920;52.130;5.584;2022-10-17T12:04:05;10.77;;;9.73;;
75320;SDS011;63920;52.130;5.584;2022-10-17T12:06:55;13.73;;;11.52;;
75320;SDS011;63920;52.130;5.584;2022-10-17T12:12:43;12.82;;;10.35;;
75320;SDS011;63920;52.130;5.584;2022-10-17T12:17:44;11.88;;;9.70;;
75320;SDS011;63920;52.130;5.584;2022-10-17T12:25:19;10.57;;;9.57;;
75320;SDS011;63920;52.130;5.584;2022-10-17T12:28:00;11.18;;;9.95;;
75320;SDS011;63920;52.130;5.584;2022-10-17T12:30:34;11.25;;;10.13;;
75320;SDS011;63920;52.130;5.584;2022-10-17T12:35:31;11.30;;;9.27;;
75320;SDS011;63920;52.130;5.584;2022-10-17T12:37:59;13.68;;;10.10;;
75320;SDS011;63920;52.130;5.584;2022-10-17T12:51:06;10.23;;;9.30;;
75320;SDS011;63920;52.130;5.584;2022-10-17T12:56:14;11.40;;;10.13;;
75320;SDS011;63920;52.130;5.584;2022-10-17T12:58:43;11.35;;;10.00;;
75320;SDS011;63920;52.130;5.584;2022-10-17T13:01:26;14.32;;;10.95;;
75320;SDS011;63920;52.130;5.584;2022-10-17T13:03:55;11.57;;;10.32;;
75320;SDS011;63920;52.130;5.584;2022-10-17T13:06:26;11.10;;;9.80;;
75320;SDS011;63920;52.130;5.584;2022-10-17T13:09:00;10.95;;;9.80;;
75320;SDS011;63920;52.130;5.584;2022-10-17T13:11:29;11.57;;;10.35;;
75320;SDS011;63920;52.130;5.584;2022-10-17T13:13:58;11.02;;;9.93;;
75320;SDS011;63920;52.130;5.584;2022-10-17T13:19:00;13.50;;;10.82;;
75320;SDS011;63920;52.130;5.584;2022-10-17T13:21:27;10.48;;;9.57;;
75320;SDS011;63920;52.130;5.584;2022-10-17T13:23:53;12.27;;;10.27;;
75320;SDS011;63920;52.130;5.584;2022-10-17T13:26:20;13.63;;;11.00;;
75320;SDS011;63920;52.130;5.584;2022-10-17T13:29:03;12.75;;;11.50;;
75320;SDS011;63920;52.130;5.584;2022-10-17T13:31:32;13.48;;;10.65;;
75320;SDS011;63920;52.130;5.584;2022-10-17T13:34:00;17.40;;;11.35;;
75320;SDS011;63920;52.130;5.584;2022-10-17T13:36:29;12.82;;;11.50;;
75320;SDS011;63920;52.130;5.584;2022-10-17T13:38:59;12.90;;;11.57;;
75320;SDS011;63920;52.130;5.584;2022-10-17T13:41:31;13.52;;;12.05;;
75320;SDS011;63920;52.130;5.584;2022-10-17T13:43:59;13.05;;;11.70;;
75320;SDS011;63920;52.130;5.584;2022-10-17T13:46:27;14.38;;;11.77;;
75320;SDS011;63920;52.130;5.584;2022-10-17T13:48:57;11.55;;;10.45;;
75320;SDS011;63920;52.130;5.584;2022-10-17T13:51:32;12.43;;;11.27;;
75320;SDS011;63920;52.130;5.584;2022-10-17T13:53:58;14.00;;;11.20;;
75320;SDS011;63920;52.130;5.584;2022-10-17T13:56:25;13.13;;;11.90;;
75320;SDS011;63920;52.130;5.584;2022-10-17T13:58:53;11.02;;;9.95;;
75320;SDS011;63920;52.130;5.584;2022-10-17T14:01:21;12.57;;;11.25;;
75320;SDS011;63920;52.130;5.584;2022-10-17T14:03:52;12.30;;;11.00;;
75320;SDS011;63920;52.130;5.584;2022-10-17T14:11:29;12.43;;;11.00;;
75320;SDS011;63920;52.130;5.584;2022-10-17T14:13:56;11.70;;;10.20;;
75320;SDS011;63920;52.130;5.584;2022-10-17T14:16:23;10.98;;;9.52;;
75320;SDS011;63920;52.130;5.584;2022-10-17T14:18:51;11.55;;;10.25;;
75320;SDS011;63920;52.130;5.584;2022-10-17T14:21:18;10.40;;;9.30;;
75320;SDS011;63920;52.130;5.584;2022-10-17T14:23:45;11.27;;;9.82;;
75320;SDS011;63920;52.130;5.584;2022-10-17T14:26:13;10.02;;;9.13;;
75320;SDS011;63920;52.130;5.584;2022-10-17T14:31:48;13.88;;;10.23;;
75320;SDS011;63920;52.130;5.584;2022-10-17T14:34:21;10.25;;;8.45;;
75320;SDS011;63920;52.130;5.584;2022-10-17T14:36:51;11.10;;;9.00;;
75320;SDS011;63920;52.130;5.584;2022-10-17T14:39:18;10.75;;;9.68;;
75320;SDS011;63920;52.130;5.584;2022-10-17T14:41:46;10.73;;;9.73;;
75320;SDS011;63920;52.130;5.584;2022-10-17T14:44:19;12.88;;;10.05;;
75320;SDS011;63920;52.130;5.584;2022-10-17T14:46:49;13.68;;;10.10;;
75320;SDS011;63920;52.130;5.584;2022-10-17T14:49:26;10.38;;;9.18;;
75320;SDS011;63920;52.130;5.584;2022-10-17T14:54:41;10.45;;;9.35;;
75320;SDS011;63920;52.130;5.584;2022-10-17T14:59:55;13.23;;;10.15;;
75320;SDS011;63920;52.130;5.584;2022-10-17T15:02:23;10.93;;;9.93;;
75320;SDS011;63920;52.130;5.584;2022-10-17T15:04:49;12.20;;;9.68;;
75320;SDS011;63920;52.130;5.584;2022-10-17T15:07:16;10.77;;;9.30;;
75320;SDS011;63920;52.130;5.584;2022-10-17T15:09:42;10.48;;;9.50;;
75320;SDS011;63920;52.130;5.584;2022-10-17T15:12:14;10.75;;;9.25;;
75320;SDS011;63920;52.130;5.584;2022-10-17T15:14:41;10.30;;;9.27;;
75320;SDS011;63920;52.130;5.584;2022-10-17T15:17:11;10.75;;;9.60;;
75320;SDS011;63920;52.130;5.584;2022-10-17T15:19:39;10.35;;;9.07;;
75320;SDS011;63920;52.130;5.584;2022-10-17T15:22:04;10.35;;;9.35;;
75320;SDS011;63920;52.130;5.584;2022-10-17T15:24:30;10.43;;;9.50;;
75320;SDS011;63920;52.130;5.584;2022-10-17T15:26:55;12.25;;;10.07;;
75320;SDS011;63920;52.130;5.584;2022-10-17T15:29:21;10.13;;;9.13;;
75320;SDS011;63920;52.130;5.584;2022-10-17T15:31:47;13.63;;;9.25;;
75320;SDS011;63920;52.130;5.584;2022-10-17T15:34:12;10.45;;;9.45;;
75320;SDS011;63920;52.130;5.584;2022-10-17T15:36:39;9.38;;;8.57;;
75320;SDS011;63920;52.130;5.584;2022-10-17T15:39:05;9.50;;;8.52;;
75320;SDS011;63920;52.130;5.584;2022-10-17T15:41:31;10.50;;;9.25;;
75320;SDS011;63920;52.130;5.584;2022-10-17T15:43:57;16.25;;;10.63;;
75320;SDS011;63920;52.130;5.584;2022-10-17T15:46:24;17.70;;;11.80;;
75320;SDS011;63920;52.130;5.584;2022-10-17T15:48:52;11.98;;;10.23;;
75320;SDS011;63920;52.130;5.584;2022-10-17T15:51:18;10.32;;;9.30;;
75320;SDS011;63920;52.130;5.584;2022-10-17T15:53:44;10.50;;;9.50;;
75320;SDS011;63920;52.130;5.584;2022-10-17T15:56:14;11.73;;;9.23;;
75320;SDS011;63920;52.130;5.584;2022-10-17T15:58:47;9.75;;;8.95;;
75320;SDS011;63920;52.130;5.584;2022-10-17T16:01:21;12.57;;;9.80;;
75320;SDS011;63920;52.130;5.584;2022-10-17T16:03:51;15.13;;;9.52;;
75320;SDS011;63920;52.130;5.584;2022-10-17T16:06:17;10.38;;;8.90;;
75320;SDS011;63920;52.130;5.584;2022-10-17T16:08:44;10.93;;;9.82;;
75320;SDS011;63920;52.130;5.584;2022-10-17T16:13:51;13.50;;;9.50;;
75320;SDS011;63920;52.130;5.584;2022-10-17T16:16:18;13.70;;;9.27;;
75320;SDS011;63920;52.130;5.584;2022-10-17T16:18:46;16.80;;;10.43;;
75320;SDS011;63920;52.130;5.584;2022-10-17T16:21:12;15.27;;;9.90;;
75320;SDS011;63920;52.130;5.584;2022-10-17T16:23:39;11.77;;;9.55;;
75320;SDS011;63920;52.130;5.584;2022-10-17T16:26:05;10.50;;;9.30;;
75320;SDS011;63920;52.130;5.584;2022-10-17T16:28:32;11.50;;;9.55;;
75320;SDS011;63920;52.130;5.584;2022-10-17T16:30:58;12.02;;;9.45;;
75320;SDS011;63920;52.130;5.584;2022-10-17T16:33:23;13.85;;;9.52;;
75320;SDS011;63920;52.130;5.584;2022-10-17T16:35:49;12.30;;;9.15;;
75320;SDS011;63920;52.130;5.584;2022-10-17T16:38:15;11.68;;;9.73;;
75320;SDS011;63920;52.130;5.584;2022-10-17T16:40:41;10.35;;;9.20;;
75320;SDS011;63920;52.130;5.584;2022-10-17T16:43:08;10.85;;;9.57;;